createdAt,value
2023-11-01T00:01:13.068Z,53.52
2023-11-01T00:03:40.111Z,53.74
2023-11-01T00:06:07.174Z,53.71
2023-11-01T00:08:34.180Z,53.53
2023-11-01T00:11:01.130Z,53.64
2023-11-01T00:13:28.169Z,53.78
2023-11-01T00:15:55.008Z,53.34
2023-11-01T00:18:22.054Z,53.59
2023-11-01T00:20:49.173Z,53.86
2023-11-01T00:23:16.348Z,53.73
2023-11-01T00:25:43.223Z,53.80
2023-11-01T00:28:10.048Z,53.75
2023-11-01T00:30:36.876Z,53.51
2023-11-01T00:33:03.832Z,53.36
2023-11-01T00:35:30.911Z,53.23
2023-11-01T00:37:57.826Z,53.46
2023-11-01T00:40:24.690Z,53.50
2023-11-01T00:42:51.513Z,53.66
2023-11-01T00:45:18.335Z,53.38
2023-11-01T00:47:45.299Z,53.70
2023-11-01T00:50:12.172Z,53.70
2023-11-01T00:52:38.992Z,53.63
2023-11-01T00:55:05.877Z,53.59
2023-11-01T00:57:32.723Z,53.81
2023-11-01T00:59:59.571Z,53.78
2023-11-01T01:02:26.632Z,53.85
2023-11-01T01:04:53.576Z,53.80
2023-11-01T01:07:20.424Z,53.80
2023-11-01T01:09:47.234Z,53.83
2023-11-01T01:12:14.019Z,53.94
2023-11-01T01:14:40.919Z,53.62
2023-11-01T01:17:07.776Z,53.73
2023-11-01T01:19:34.926Z,53.69
2023-11-01T01:22:01.814Z,53.75
2023-11-01T01:24:28.878Z,53.66
2023-11-01T01:26:55.750Z,53.52
2023-11-01T01:29:22.665Z,53.64
2023-11-01T01:31:49.571Z,53.67
2023-11-01T01:34:16.429Z,54.00
2023-11-01T01:36:43.282Z,54.01
2023-11-01T01:39:10.099Z,53.82
2023-11-01T01:41:36.981Z,54.04
2023-11-01T01:44:04.083Z,53.74
2023-11-01T01:46:31.080Z,53.93
2023-11-01T01:48:57.856Z,53.87
2023-11-01T01:51:24.728Z,53.88
2023-11-01T01:53:51.524Z,53.81
2023-11-01T01:56:18.487Z,53.88
2023-11-01T01:58:45.297Z,53.79
2023-11-01T02:01:12.202Z,53.59
2023-11-01T02:03:39.261Z,53.42
2023-11-01T02:06:06.243Z,53.49
2023-11-01T02:08:33.237Z,53.50
2023-11-01T02:11:00.090Z,53.56
2023-11-01T02:13:26.921Z,53.55
2023-11-01T02:15:53.782Z,53.33
2023-11-01T02:18:20.596Z,53.74
2023-11-01T02:20:47.422Z,53.43
2023-11-01T02:23:14.338Z,53.44
2023-11-01T02:25:41.176Z,53.60
2023-11-01T02:28:07.960Z,53.54
2023-11-01T02:30:34.746Z,53.46
2023-11-01T02:33:01.608Z,53.54
2023-11-01T02:35:28.671Z,53.53
2023-11-01T02:37:55.517Z,53.40
2023-11-01T02:40:22.305Z,53.36
2023-11-01T02:42:49.106Z,53.50
2023-11-01T02:45:16.055Z,53.35
2023-11-01T02:47:42.905Z,53.24
2023-11-01T02:50:09.746Z,53.18
2023-11-01T02:52:36.536Z,53.20
2023-11-01T02:55:03.342Z,53.45
2023-11-01T02:57:30.194Z,53.62
2023-11-01T02:59:56.984Z,53.58
2023-11-01T03:02:23.784Z,53.75
2023-11-01T03:04:50.574Z,53.52
2023-11-01T03:07:17.492Z,53.71
2023-11-01T03:09:44.368Z,53.50
2023-11-01T03:12:11.275Z,53.48
2023-11-01T03:14:38.055Z,53.59
2023-11-01T03:17:04.878Z,53.55
2023-11-01T03:19:31.699Z,53.58
2023-11-01T03:21:58.524Z,53.40
2023-11-01T03:24:25.590Z,53.53
2023-11-01T03:26:52.409Z,53.44
2023-11-01T03:29:19.233Z,53.59
2023-11-01T03:31:46.231Z,53.30
2023-11-01T03:34:13.037Z,53.44
2023-11-01T03:36:39.819Z,53.49
2023-11-01T03:39:06.869Z,53.23
2023-11-01T03:41:33.699Z,53.84
2023-11-01T03:44:00.504Z,53.72
2023-11-01T03:46:27.330Z,53.65
2023-11-01T03:48:54.133Z,53.88
2023-11-01T03:51:20.961Z,53.88
2023-11-01T03:53:47.819Z,54.15
2023-11-01T03:56:14.631Z,54.09
2023-11-01T03:58:41.462Z,53.95
2023-11-01T04:01:08.298Z,54.30
2023-11-01T04:03:35.176Z,54.22
2023-11-01T04:06:02.043Z,54.00
2023-11-01T04:08:28.834Z,54.05
2023-11-01T04:10:55.683Z,53.96
2023-11-01T04:13:22.599Z,53.99
2023-11-01T04:15:49.520Z,53.85
2023-11-01T04:18:16.427Z,53.88
2023-11-01T04:20:43.432Z,53.94
2023-11-01T04:23:10.248Z,53.98
2023-11-01T04:25:37.099Z,53.79
2023-11-01T04:28:03.900Z,53.60
2023-11-01T04:30:30.764Z,53.69
2023-11-01T04:32:57.656Z,53.60
2023-11-01T04:35:24.500Z,53.78
2023-11-01T04:37:51.312Z,53.70
2023-11-01T04:40:18.136Z,53.56
2023-11-01T04:42:44.916Z,53.69
2023-11-01T04:45:11.733Z,53.93
2023-11-01T04:47:38.620Z,53.69
2023-11-01T04:50:05.939Z,53.54
2023-11-01T04:52:32.817Z,53.70
2023-11-01T04:54:59.672Z,53.53
2023-11-01T04:57:26.461Z,53.58
2023-11-01T04:59:53.385Z,53.55
2023-11-01T05:02:20.396Z,53.52
2023-11-01T05:04:47.186Z,53.87
2023-11-01T05:07:13.992Z,53.74
2023-11-01T05:09:40.775Z,53.77
2023-11-01T05:12:07.588Z,54.07
2023-11-01T05:14:34.488Z,54.09
2023-11-01T05:17:01.377Z,53.94
2023-11-01T05:19:28.388Z,54.10
2023-11-01T05:21:55.214Z,54.04
2023-11-01T05:24:22.014Z,54.28
2023-11-01T05:26:48.846Z,54.19
2023-11-01T05:29:15.808Z,54.22
2023-11-01T05:31:42.604Z,54.56
2023-11-01T05:34:09.431Z,53.41
2023-11-01T05:36:36.446Z,54.44
2023-11-01T05:39:03.519Z,54.56
2023-11-01T05:41:30.473Z,54.68
2023-11-01T05:43:57.367Z,54.57
2023-11-01T05:46:24.249Z,54.77
2023-11-01T05:48:51.076Z,54.68
2023-11-01T05:51:17.861Z,53.28
2023-11-01T05:53:44.732Z,52.84
2023-11-01T05:56:11.598Z,52.00
2023-11-01T05:58:38.397Z,52.69
2023-11-01T06:01:05.168Z,52.98
2023-11-01T06:03:33.514Z,52.91
2023-11-01T06:06:00.384Z,54.52
2023-11-01T06:08:27.254Z,54.08
2023-11-01T06:10:54.088Z,54.01
2023-11-01T06:13:20.944Z,50.67
2023-11-01T06:15:47.784Z,50.17
2023-11-01T06:18:14.692Z,54.29
2023-11-01T06:20:41.685Z,54.40
2023-11-01T06:23:08.601Z,53.92
2023-11-01T06:25:35.443Z,54.71
2023-11-01T06:28:02.227Z,54.49
2023-11-01T06:30:29.233Z,54.12
2023-11-01T06:32:56.146Z,54.14
2023-11-01T06:35:23.073Z,54.15
2023-11-01T06:37:50.134Z,54.25
2023-11-01T06:40:17.201Z,53.94
2023-11-01T06:42:44.051Z,53.97
2023-11-01T06:45:10.906Z,52.00
2023-11-01T06:47:37.747Z,51.21
2023-11-01T06:50:04.653Z,51.27
2023-11-01T06:52:31.557Z,51.33
2023-11-01T06:54:58.419Z,51.22
2023-11-01T06:57:25.270Z,52.05
2023-11-01T06:59:52.217Z,51.13
2023-11-01T07:02:19.187Z,51.94
2023-11-01T07:04:46.073Z,51.70
2023-11-01T07:07:15.070Z,51.19
2023-11-01T07:09:42.827Z,52.27
2023-11-01T07:12:09.688Z,51.78
2023-11-01T07:14:36.516Z,51.88
2023-11-01T07:17:03.426Z,51.28
2023-11-01T07:19:30.344Z,51.04
2023-11-01T07:21:57.229Z,51.99
2023-11-01T07:24:24.043Z,51.41
2023-11-01T07:26:50.865Z,52.15
2023-11-01T07:29:17.869Z,52.82
2023-11-01T07:31:44.695Z,52.38
2023-11-01T07:34:11.579Z,52.71
2023-11-01T07:36:38.429Z,51.57
2023-11-01T07:39:05.422Z,51.09
2023-11-01T07:41:32.264Z,50.82
2023-11-01T07:43:59.114Z,51.30
2023-11-01T07:46:25.994Z,52.04
2023-11-01T07:48:52.775Z,53.05
2023-11-01T07:51:19.639Z,52.91
2023-11-01T07:53:46.699Z,52.58
2023-11-01T07:56:13.521Z,52.74
2023-11-01T07:58:40.385Z,52.68
2023-11-01T08:01:07.191Z,52.67
2023-11-01T08:03:34.150Z,52.59
2023-11-01T08:06:01.018Z,52.57
2023-11-01T08:08:28.061Z,52.49
2023-11-01T08:10:54.846Z,52.66
2023-11-01T08:13:21.657Z,52.43
2023-11-01T08:15:48.488Z,52.59
2023-11-01T08:18:15.493Z,52.53
2023-11-01T08:20:42.323Z,52.62
2023-11-01T08:23:09.226Z,52.56
2023-11-01T08:25:37.934Z,52.44
2023-11-01T08:28:05.215Z,52.62
2023-11-01T08:30:32.120Z,52.69
2023-11-01T08:32:59.084Z,52.69
2023-11-01T08:35:26.011Z,52.55
2023-11-01T08:37:52.827Z,52.61
2023-11-01T08:40:19.636Z,52.53
2023-11-01T08:42:46.477Z,52.68
2023-11-01T08:45:13.331Z,52.66
2023-11-01T08:47:40.233Z,52.70
2023-11-01T08:50:07.120Z,52.66
2023-11-01T08:52:33.967Z,52.60
2023-11-01T08:55:00.787Z,52.67
2023-11-01T08:57:27.612Z,52.52
2023-11-01T08:59:54.582Z,52.61
2023-11-01T09:02:21.490Z,52.55
2023-11-01T09:04:48.341Z,52.58
2023-11-01T09:07:15.191Z,52.42
2023-11-01T09:09:42.006Z,52.11
2023-11-01T09:12:08.795Z,52.32
2023-11-01T09:14:35.629Z,52.26
2023-11-01T09:17:02.456Z,52.26
2023-11-01T09:19:29.349Z,52.48
2023-11-01T09:21:56.187Z,52.74
2023-11-01T09:24:22.988Z,52.39
2023-11-01T09:26:49.841Z,52.75
2023-11-01T09:29:16.784Z,52.62
2023-11-01T09:31:43.572Z,52.45
2023-11-01T09:34:10.443Z,52.57
2023-11-01T09:36:37.252Z,52.54
2023-11-01T09:39:04.107Z,52.79
2023-11-01T09:41:31.000Z,52.63
2023-11-01T09:43:57.827Z,52.54
2023-11-01T09:46:24.652Z,52.71
2023-11-01T09:48:51.480Z,52.59
2023-11-01T09:51:18.289Z,52.76
2023-11-01T09:53:45.128Z,52.76
2023-11-01T09:56:11.930Z,52.58
2023-11-01T09:58:38.773Z,52.57
2023-11-01T10:01:05.637Z,52.83
2023-11-01T10:03:32.610Z,52.83
2023-11-01T10:05:59.588Z,52.82
2023-11-01T10:08:26.530Z,52.98
2023-11-01T10:10:53.532Z,52.97
2023-11-01T10:13:20.439Z,53.04
2023-11-01T10:15:47.485Z,52.94
2023-11-01T10:18:14.476Z,53.08
2023-11-01T10:20:41.421Z,53.14
2023-11-01T10:23:08.357Z,52.97
2023-11-01T10:25:35.188Z,52.99
2023-11-01T10:28:01.977Z,53.25
2023-11-01T10:30:28.790Z,53.05
2023-11-01T10:32:55.817Z,53.07
2023-11-01T10:35:22.768Z,52.82
2023-11-01T10:37:49.554Z,52.85
2023-11-01T10:40:16.421Z,52.90
2023-11-01T10:42:43.263Z,52.64
2023-11-01T10:45:10.083Z,53.05
2023-11-01T10:47:36.962Z,53.11
2023-11-01T10:50:04.001Z,53.27
2023-11-01T10:52:30.849Z,53.10
2023-11-01T10:54:57.731Z,53.12
2023-11-01T10:57:24.536Z,53.01
2023-11-01T10:59:51.470Z,53.00
2023-11-01T11:02:18.874Z,52.90
2023-11-01T11:04:46.201Z,53.29
2023-11-01T11:07:21.815Z,53.16
2023-11-01T11:09:51.358Z,53.43
2023-11-01T11:12:18.307Z,53.51
2023-11-01T11:14:45.251Z,53.49
2023-11-01T11:17:12.063Z,53.65
2023-11-01T11:19:38.958Z,53.68
2023-11-01T11:22:05.818Z,53.47
2023-11-01T11:24:32.649Z,53.68
2023-11-01T11:26:59.666Z,53.64
2023-11-01T11:29:26.587Z,53.49
2023-11-01T11:31:53.417Z,53.56
2023-11-01T11:34:20.302Z,53.63
2023-11-01T11:36:47.081Z,53.36
2023-11-01T11:39:13.977Z,53.61
2023-11-01T11:41:40.852Z,53.70
2023-11-01T11:44:07.659Z,53.74
2023-11-01T11:46:34.494Z,53.76
2023-11-01T11:49:01.346Z,53.56
2023-11-01T11:51:28.207Z,53.50
2023-11-01T11:53:55.099Z,53.58
2023-11-01T11:56:21.983Z,53.44
2023-11-01T11:58:48.774Z,53.76
2023-11-01T12:01:15.607Z,53.70
2023-11-01T12:03:42.558Z,54.20
2023-11-01T12:06:09.654Z,53.65
2023-11-01T12:08:36.686Z,53.79
2023-11-01T12:11:03.566Z,53.76
2023-11-01T12:13:30.393Z,53.85
2023-11-01T12:15:57.289Z,53.65
2023-11-01T12:18:24.255Z,53.54
2023-11-01T12:20:51.191Z,53.51
2023-11-01T12:23:18.067Z,53.61
2023-11-01T12:25:44.901Z,53.79
2023-11-01T12:28:11.726Z,54.13
2023-11-01T12:30:38.552Z,54.23
2023-11-01T12:33:05.655Z,54.08
2023-11-01T12:35:32.507Z,53.63
2023-11-01T12:37:59.555Z,53.76
2023-11-01T12:40:26.357Z,53.52
2023-11-01T12:42:53.174Z,54.07
2023-11-01T12:45:20.208Z,53.92
2023-11-01T12:47:47.375Z,53.77
2023-11-01T12:50:14.285Z,53.74
2023-11-01T12:52:41.134Z,53.78
2023-11-01T12:55:07.969Z,53.91
2023-11-01T12:57:34.794Z,53.82
2023-11-01T13:00:01.761Z,53.87
2023-11-01T13:02:28.728Z,53.96
2023-11-01T13:04:55.585Z,54.01
2023-11-01T13:07:22.436Z,54.45
2023-11-01T13:09:49.287Z,54.08
2023-11-01T13:12:16.105Z,53.81
2023-11-01T13:14:42.933Z,53.46
2023-11-01T13:17:09.764Z,54.53
2023-11-01T13:19:36.751Z,54.30
2023-11-01T13:22:03.536Z,54.43
2023-11-01T13:24:30.430Z,54.24
2023-11-01T13:26:57.263Z,54.29
2023-11-01T13:29:24.154Z,54.03
2023-11-01T13:31:53.226Z,54.06
2023-11-01T13:34:21.214Z,53.79
2023-11-01T13:36:48.029Z,53.38
2023-11-01T13:39:14.828Z,53.25
2023-11-01T13:41:41.631Z,52.89
2023-11-01T13:44:08.509Z,52.73
2023-11-01T13:46:35.455Z,52.47
2023-11-01T13:49:02.316Z,52.56
2023-11-01T13:51:29.083Z,52.37
2023-11-01T13:53:55.968Z,52.32
2023-11-01T13:56:22.767Z,52.28
2023-11-01T13:58:49.695Z,52.06
2023-11-01T14:01:16.482Z,52.62
2023-11-01T14:03:43.440Z,52.43
2023-11-01T14:06:10.408Z,52.41
2023-11-01T14:08:37.322Z,52.67
2023-11-01T14:11:04.142Z,52.63
2023-11-01T14:13:31.027Z,52.27
2023-11-01T14:15:57.961Z,52.46
2023-11-01T14:18:24.891Z,52.96
2023-11-01T14:20:52.126Z,53.09
2023-11-01T14:23:19.504Z,53.15
2023-11-01T14:25:46.319Z,53.12
2023-11-01T14:28:13.173Z,52.93
2023-11-01T14:30:39.996Z,52.97
2023-11-01T14:33:06.835Z,53.11
2023-11-01T14:35:33.828Z,52.76
2023-11-01T14:38:00.669Z,53.10
2023-11-01T14:40:27.473Z,52.70
2023-11-01T14:42:54.252Z,52.53
2023-11-01T14:45:21.042Z,52.60
2023-11-01T14:47:47.882Z,52.24
2023-11-01T14:50:14.764Z,52.35
2023-11-01T14:52:41.544Z,52.50
2023-11-01T14:55:08.396Z,52.25
2023-11-01T14:57:35.191Z,52.29
2023-11-01T15:00:02.002Z,51.90
2023-11-01T15:02:28.875Z,51.86
2023-11-01T15:04:55.707Z,52.04
2023-11-01T15:07:22.553Z,51.99
2023-11-01T15:09:49.396Z,51.73
2023-11-01T15:12:16.170Z,51.75
2023-11-01T15:14:43.001Z,51.67
2023-11-01T15:17:09.796Z,51.77
2023-11-01T15:19:36.583Z,51.76
2023-11-01T15:22:03.511Z,51.55
2023-11-01T15:24:30.357Z,51.63
2023-11-01T15:26:58.639Z,51.42
2023-11-01T15:29:26.673Z,51.71
2023-11-01T15:31:53.700Z,51.63
2023-11-01T15:34:20.527Z,52.51
2023-11-01T15:36:47.343Z,52.83
2023-11-01T15:39:14.175Z,52.56
2023-11-01T15:41:40.993Z,52.81
2023-11-01T15:44:07.855Z,51.54
2023-11-01T15:46:34.669Z,50.52
2023-11-01T15:49:01.486Z,50.42
2023-11-01T15:51:28.317Z,50.15
2023-11-01T15:53:55.152Z,50.13
2023-11-01T15:56:22.001Z,50.40
2023-11-01T15:58:48.835Z,50.65
2023-11-01T16:01:15.653Z,50.52
2023-11-01T16:03:42.583Z,50.56
2023-11-01T16:06:09.745Z,50.52
2023-11-01T16:08:36.735Z,50.31
2023-11-01T16:11:03.594Z,50.59
2023-11-01T16:13:30.436Z,50.25
2023-11-01T16:15:57.267Z,50.49
2023-11-01T16:18:24.156Z,50.70
2023-11-01T16:20:51.361Z,50.74
2023-11-01T16:23:18.174Z,50.91
2023-11-01T16:25:44.972Z,50.84
2023-11-01T16:28:11.819Z,50.97
2023-11-01T16:30:38.702Z,50.57
2023-11-01T16:33:05.584Z,50.61
2023-11-01T16:35:32.418Z,50.83
2023-11-01T16:37:59.230Z,51.00
2023-11-01T16:40:26.045Z,50.99
2023-11-01T16:42:52.816Z,51.17
2023-11-01T16:45:19.662Z,51.04
2023-11-01T16:47:46.533Z,50.89
2023-11-01T16:50:13.377Z,50.96
2023-11-01T16:52:40.201Z,50.91
2023-11-01T16:55:07.060Z,51.12
2023-11-01T16:57:33.968Z,51.19
2023-11-01T17:00:00.822Z,51.33
2023-11-01T17:02:31.445Z,51.62
2023-11-01T17:05:00.856Z,51.26
2023-11-01T17:07:27.699Z,51.24
2023-11-01T17:09:54.469Z,51.46
2023-11-01T17:12:21.315Z,51.59
2023-11-01T17:14:48.251Z,51.38
2023-11-01T17:17:15.064Z,51.37
2023-11-01T17:19:41.840Z,51.20
2023-11-01T17:22:08.638Z,51.16
2023-11-01T17:24:35.467Z,51.22
2023-11-01T17:27:02.311Z,51.13
2023-11-01T17:29:29.310Z,51.00
2023-11-01T17:31:56.293Z,51.12
2023-11-01T17:34:23.240Z,51.03
2023-11-01T17:36:50.067Z,51.13
2023-11-01T17:39:17.009Z,51.12
2023-11-01T17:41:43.901Z,51.16
2023-11-01T17:44:10.918Z,51.10
2023-11-01T17:46:37.772Z,51.30
2023-11-01T17:49:04.618Z,51.19
2023-11-01T17:51:31.537Z,50.89
2023-11-01T17:53:58.424Z,51.06
2023-11-01T17:56:25.245Z,51.09
2023-11-01T17:58:52.167Z,50.81
2023-11-01T18:01:19.495Z,50.97
2023-11-01T18:03:46.663Z,50.77
2023-11-01T18:06:13.592Z,51.35
2023-11-01T18:08:40.732Z,51.23
2023-11-01T18:11:07.560Z,51.22
2023-11-01T18:13:34.562Z,51.24
2023-11-01T18:16:01.412Z,51.63
2023-11-01T18:18:28.297Z,52.09
2023-11-01T18:20:55.285Z,51.96
2023-11-01T18:23:22.194Z,52.40
2023-11-01T18:25:49.008Z,52.38
2023-11-01T18:28:15.944Z,52.45
2023-11-01T18:30:42.894Z,52.85
2023-11-01T18:33:09.739Z,53.02
2023-11-01T18:35:36.651Z,52.63
2023-11-01T18:38:03.510Z,53.04
2023-11-01T18:40:30.466Z,53.08
2023-11-01T18:42:57.365Z,53.10
2023-11-01T18:45:24.201Z,53.18
2023-11-01T18:47:51.207Z,52.99
2023-11-01T18:50:18.053Z,53.02
2023-11-01T18:52:44.837Z,53.20
2023-11-01T18:55:11.679Z,53.41
2023-11-01T18:57:38.484Z,53.62
2023-11-01T19:00:05.337Z,53.29
2023-11-01T19:02:32.192Z,53.94
2023-11-01T19:04:59.078Z,53.65
2023-11-01T19:07:25.954Z,53.53
2023-11-01T19:09:52.818Z,53.14
2023-11-01T19:12:19.579Z,54.99
2023-11-01T19:14:46.406Z,54.68
2023-11-01T19:17:13.569Z,54.86
2023-11-01T19:19:40.391Z,54.88
2023-11-01T19:22:07.229Z,55.56
2023-11-01T19:24:34.265Z,54.35
2023-11-01T19:27:04.716Z,54.49
2023-11-01T19:29:36.543Z,54.39
2023-11-01T19:32:03.386Z,54.86
2023-11-01T19:34:30.380Z,54.85
2023-11-01T19:36:57.408Z,54.65
2023-11-01T19:39:24.333Z,54.75
2023-11-01T19:41:51.383Z,54.55
2023-11-01T19:44:18.270Z,54.57
2023-11-01T19:46:45.170Z,54.49
2023-11-01T19:49:12.013Z,55.29
2023-11-01T19:51:38.897Z,55.00
2023-11-01T19:54:05.784Z,54.97
2023-11-01T19:56:32.753Z,55.23
2023-11-01T19:58:59.567Z,54.91
2023-11-01T20:01:26.480Z,55.16
2023-11-01T20:03:53.763Z,54.91
2023-11-01T20:06:20.727Z,55.08
2023-11-01T20:08:47.552Z,54.60
2023-11-01T20:11:14.349Z,54.77
2023-11-01T20:13:41.265Z,54.93
2023-11-01T20:16:12.899Z,54.91
2023-11-01T20:18:44.794Z,54.67
2023-11-01T20:21:11.711Z,54.57
2023-11-01T20:23:38.570Z,54.55
2023-11-01T20:26:05.649Z,54.47
2023-11-01T20:28:32.695Z,54.52
2023-11-01T20:30:59.515Z,54.34
2023-11-01T20:33:26.398Z,54.33
2023-11-01T20:35:53.358Z,54.46
2023-11-01T20:38:20.208Z,54.39
2023-11-01T20:40:47.259Z,54.44
2023-11-01T20:43:14.053Z,54.37
2023-11-01T20:45:40.903Z,54.60
2023-11-01T20:48:07.800Z,54.52
2023-11-01T20:50:34.678Z,54.55
2023-11-01T20:53:01.572Z,54.59
2023-11-01T20:55:28.361Z,54.46
2023-11-01T20:57:55.199Z,54.74
2023-11-01T21:00:22.088Z,54.85
2023-11-01T21:02:49.046Z,55.21
2023-11-01T21:05:15.928Z,54.64
2023-11-01T21:07:42.912Z,55.57
2023-11-01T21:10:09.731Z,55.73
2023-11-01T21:12:36.616Z,55.46
2023-11-01T21:15:03.600Z,55.02
2023-11-01T21:17:30.508Z,54.89
2023-11-01T21:19:57.371Z,54.71
2023-11-01T21:22:24.233Z,54.98
2023-11-01T21:24:51.212Z,55.11
2023-11-01T21:27:18.070Z,55.08
2023-11-01T21:29:44.963Z,55.07
2023-11-01T21:32:11.863Z,55.72
2023-11-01T21:34:38.836Z,56.19
2023-11-01T21:37:05.666Z,55.78
2023-11-01T21:39:33.366Z,55.62
2023-11-01T21:42:01.168Z,56.08
2023-11-01T21:44:28.140Z,55.93
2023-11-01T21:46:54.976Z,55.69
2023-11-01T21:49:22.006Z,56.09
2023-11-01T21:51:48.890Z,55.80
2023-11-01T21:54:15.740Z,55.33
2023-11-01T21:56:42.538Z,55.30
2023-11-01T21:59:09.400Z,55.36
2023-11-01T22:01:36.223Z,55.37
2023-11-01T22:04:10.256Z,55.22
2023-11-01T22:06:40.766Z,55.28
2023-11-01T22:09:07.611Z,55.46
2023-11-01T22:11:34.469Z,55.58
2023-11-01T22:14:01.362Z,55.42
2023-11-01T22:16:28.318Z,55.58
2023-11-01T22:18:55.142Z,55.54
2023-11-01T22:21:21.958Z,55.51
2023-11-01T22:23:49.011Z,55.79
2023-11-01T22:26:15.898Z,56.02
2023-11-01T22:28:42.749Z,56.36
2023-11-01T22:31:09.546Z,56.28
2023-11-01T22:33:36.435Z,56.87
2023-11-01T22:36:03.400Z,56.95
2023-11-01T22:38:30.280Z,57.23
2023-11-01T22:40:57.157Z,57.05
2023-11-01T22:43:24.038Z,57.30
2023-11-01T22:45:50.830Z,57.34
2023-11-01T22:48:17.767Z,57.35
2023-11-01T22:50:44.660Z,57.55
2023-11-01T22:53:11.637Z,58.05
2023-11-01T22:55:41.693Z,58.29
2023-11-01T22:58:09.593Z,58.21
2023-11-01T23:00:36.419Z,58.56
2023-11-01T23:03:03.607Z,58.68
2023-11-01T23:05:30.455Z,58.88
2023-11-01T23:07:57.434Z,58.81
2023-11-01T23:10:24.312Z,59.11
2023-11-01T23:12:51.104Z,59.32
2023-11-01T23:15:18.075Z,59.69
2023-11-01T23:17:45.010Z,59.60
2023-11-01T23:20:11.837Z,59.58
2023-11-01T23:22:38.654Z,59.87
2023-11-01T23:25:05.462Z,59.68
2023-11-01T23:27:32.312Z,60.06
2023-11-01T23:29:59.187Z,59.96
2023-11-01T23:32:26.065Z,60.21
2023-11-01T23:34:52.857Z,59.81
2023-11-01T23:37:19.848Z,60.05
2023-11-01T23:39:46.691Z,59.91
2023-11-01T23:42:13.564Z,60.02
2023-11-01T23:44:40.650Z,59.84
2023-11-01T23:47:07.520Z,58.91
2023-11-01T23:49:34.464Z,59.08
2023-11-01T23:52:01.299Z,58.79
2023-11-01T23:54:28.210Z,58.76
2023-11-01T23:56:55.299Z,58.77
2023-11-01T23:59:22.075Z,59.10
